Terminal Aerodrome Forecast
Issued by NWS

Home | Current Version | Previous Version | Text Only | Print | Product List | Glossary On
Versions: 1 2 3 4 5 6 7 8 9 10 11 12 13
000
FTUS44 KOUN 210520
TAFLAW
TAF
KLAW 210520Z 2106/2206 17007KT 6SM BR VCSH BKN009
     FM211300 18005KT 5SM BR BKN007
     FM211600 31005KT P6SM BKN015
     FM211700 36007KT P6SM BKN025
     FM211900 02008KT P6SM SCT035=

USA.gov is the U.S. government's official web portal to all federal, state and local government web resources and services.